Portada
METAR-TAF:

METAR-TAF

Aeroports :

Gloucester, Anglaterra

latitud: 51-54N, longitud: 002-10W, altitud: 29 m

Observació

L'informe es va fer fa 36 minuts, a les 12:20 UTC
Vent 3 kt del Sud/Sud-Est
Temperatura 25°C
Humitat 50%
Pressió 1018 hPa
Visibilitat 10 km o més
Escasses núvols a una alçada de 4500 ft

METAR: EGBJ 161220Z 16003KT 9999 FEW045 25/14 Q1018

Hora: 13:56 (12:56 UTC)

Pronòstic

L'informe es va fer fa 1 hora i 55 minuts, a les 11:01 UTC
Pronòstic vàlid del 16 a les 12 UTC al 16 a les 19 UTC
Vent 5 kt del Oest
Visibilitat 10 km o més
Escasses núvols a una alçada de 4500 ft

TAF: EGBJ 161101Z 1612/1619 27005KT 9999 FEW045

Observacions i pronòstics meteorològics de més de 4000 aeroports (METAR i TAF).

Les estacions disponibles són els punts grocs i vermells al mapa.

Posi el ratolí al punt desitjat per veure el nom de l'estació.

Feu clic per veure les observacions i els pronòstics meteorològics.

Per canviar el mapa: feu clic els botons verds amb una creu de color negre per apropar; al botó verd amb un guió per allunyar la imatge; o en les fletxes verdes per a mapes adjacents.


METAR-TAF: